sim
Sign-in with your pilot id or email,
or register
Callsign
Passwort

Schedule Details

Flight Number: DLH2285 (3)
Departure: Brussels Airport (EBBR) at 09:50
Arrival: Munich Airport (EDDM) at 11:05
Route: Lufthansa Passenger Schedule. Enter filed route here before submitting Pirep.

Weather Information
Getting current METAR information for EBBR 221320Z VRB01KT CAVOK 23/09 Q1010 NOSIG
Getting current METAR information for EDDM 221320Z 05004KT 340V140 9999 FEW040 24/14 Q1012 NOSIG

Schedule Frequency

Route Map